Time;durP1;ratioP1;P1;durP2;ratioP2;P2;SDS_P1;SDS_P2;PMS_P1;PMS_P2;Temp;Humidity;BMP_temperature;BMP_pressure;BME280_temperature;BME280_humidity;BME280_pressure;Samples;Min_cycle;Max_cycle;Signal;HPM_P1;HPM_P2
2022/06/19 00:00:46;;;;;;;;;;;;;;;20.63;57.55;101269.63;7403469;19;1541;-60
2022/06/19 00:03:18;;;;;;;;;;;;;;;20.68;57.58;101287.19;7403395;19;1569;-63
2022/06/19 00:05:49;;;;;;;;;;;;;;;20.71;57.43;101276.13;7401971;19;1846;-63
2022/06/19 00:08:17;;;;;;;;;;;;;;;20.58;57.34;101266.44;7403421;19;1633;-60
2022/06/19 00:10:46;;;;;;;;;;;;;;;20.58;57.41;101281.72;7403414;19;1729;-60
2022/06/19 00:13:14;;;;;;;;;;;;;;;20.57;57.60;101278.19;7401030;19;1524;-61
2022/06/19 00:15:42;;;;;;;;;;;;;;;20.59;57.23;101283.44;7402111;19;1272;-62
2022/06/19 00:18:11;;;;;;;;;;;;;;;20.66;57.42;101285.47;7403059;19;1720;-63
2022/06/19 00:20:39;;;;;;;;;;;;;;;20.58;57.21;101270.97;7402065;19;1524;-60
2022/06/19 00:23:10;;;;;;;;;;;;;;;20.44;57.31;101293.66;7402441;19;1628;-63
2022/06/19 00:25:39;;;;;;;;;;;;;;;20.38;57.46;101278.06;7402827;19;1853;-60
2022/06/19 00:28:07;;;;;;;;;;;;;;;20.39;57.31;101282.44;7402434;19;1512;-60
2022/06/19 00:30:36;;;;;;;;;;;;;;;20.42;57.47;101282.19;7402572;19;1616;-62
2022/06/19 00:33:05;;;;;;;;;;;;;;;20.51;57.44;101293.97;7407842;19;1542;-63
2022/06/19 00:35:33;;;;;;;;;;;;;;;20.52;57.35;101301.06;7409449;19;1546;-59
2022/06/19 00:38:02;;;;;;;;;;;;;;;20.54;57.37;101288.34;7409765;19;1633;-63
2022/06/19 00:40:34;;;;;;;;;;;;;;;20.55;57.63;101304.34;7410864;19;1082;-60
2022/06/19 00:43:02;;;;;;;;;;;;;;;20.51;57.44;101293.97;7410412;19;1648;-63
2022/06/19 00:45:38;;;;;;;;;;;;;;;20.41;57.38;101292.09;7409134;19;1853;-63
2022/06/19 00:48:11;;;;;;;;;;;;;;;20.57;57.10;101288.06;7409598;19;1651;-63
2022/06/19 00:50:41;;;;;;;;;;;;;;;20.58;57.36;101308.59;7408805;19;1648;-60
2022/06/19 00:53:11;;;;;;;;;;;;;;;20.60;56.77;101301.28;7409301;19;1621;-59
2022/06/19 00:55:44;;;;;;;;;;;;;;;20.54;57.04;101304.47;7409785;19;1628;-63
2022/06/19 00:58:15;;;;;;;;;;;;;;;20.54;56.87;101302.63;7408165;19;1613;-60
2022/06/19 01:00:44;;;;;;;;;;;;;;;20.53;57.12;101306.31;7408248;19;1427;-60
2022/06/19 01:03:16;;;;;;;;;;;;;;;20.48;57.12;101305.84;7409850;19;1568;-59
2022/06/19 01:05:46;;;;;;;;;;;;;;;20.48;56.82;101303.16;7407959;19;1846;-63
2022/06/19 01:08:14;;;;;;;;;;;;;;;20.41;56.91;101307.34;7408976;19;1422;-60
2022/06/19 01:10:47;;;;;;;;;;;;;;;20.37;56.87;101305.91;7409463;19;1471;-60
2022/06/19 01:13:16;;;;;;;;;;;;;;;20.39;56.53;101298.56;7408025;19;1535;-60
2022/06/19 01:15:44;;;;;;;;;;;;;;;20.34;56.48;101292.75;7409532;19;1541;-60
2022/06/19 01:18:14;;;;;;;;;;;;;;;20.17;57.10;101297.69;7407935;19;1556;-63
2022/06/19 01:20:43;;;;;;;;;;;;;;;20.26;56.72;101307.66;7408026;19;1644;-60
2022/06/19 01:23:15;;;;;;;;;;;;;;;20.34;56.61;101306.19;7407163;19;1635;-59
2022/06/19 01:25:46;;;;;;;;;;;;;;;20.35;56.56;101302.50;7407711;19;1853;-59
2022/06/19 01:30:59;;;;;;;;;;;;;;;20.44;56.60;101307.09;7409970;19;1668;-60
2022/06/19 01:33:30;;;;;;;;;;;;;;;20.41;56.35;101302.84;7409280;19;1399;-62
2022/06/19 01:36:00;;;;;;;;;;;;;;;20.41;56.21;101312.72;7407751;19;1637;-60
2022/06/19 01:38:29;;;;;;;;;;;;;;;20.31;56.52;101307.28;7406860;19;1451;-60
2022/06/19 01:41:02;;;;;;;;;;;;;;;20.34;56.15;101311.56;7408791;19;980;-61
2022/06/19 01:43:30;;;;;;;;;;;;;;;20.35;56.56;101326.66;7407145;19;1698;-63
2022/06/19 01:45:59;;;;;;;;;;;;;;;20.27;56.45;101311.19;7407048;19;1868;-63
2022/06/19 01:48:30;;;;;;;;;;;;;;;20.30;56.29;101318.16;7408666;19;1496;-59
2022/06/19 01:50:59;;;;;;;;;;;;;;;20.27;56.30;101322.81;7407432;19;1612;-63
2022/06/19 01:53:31;;;;;;;;;;;;;;;20.27;55.92;101316.56;7406964;19;1501;-60
2022/06/19 01:56:02;;;;;;;;;;;;;;;20.33;55.57;101324.09;7408588;19;1518;-63
2022/06/19 01:58:34;;;;;;;;;;;;;;;20.34;55.71;101303.50;7407582;19;1631;-63
2022/06/19 02:01:04;;;;;;;;;;;;;;;20.34;55.61;101322.28;7397602;19;1787;-59
2022/06/19 02:03:37;;;;;;;;;;;;;;;20.37;55.34;101332.75;7406788;19;1588;-59
2022/06/19 02:06:05;;;;;;;;;;;;;;;20.37;55.49;101333.63;7406129;19;1867;-59
2022/06/19 02:08:36;;;;;;;;;;;;;;;20.30;55.66;101326.22;7405564;19;1707;-59
2022/06/19 02:11:08;;;;;;;;;;;;;;;20.11;55.69;101327.75;7405783;19;1519;-59
2022/06/19 02:13:37;;;;;;;;;;;;;;;20.12;55.80;101328.63;7403038;19;1508;-59
2022/06/19 02:16:07;;;;;;;;;;;;;;;20.13;55.69;101320.41;7406208;19;1660;-59
2022/06/19 02:18:36;;;;;;;;;;;;;;;20.20;55.36;101310.03;7407339;19;1607;-59
2022/06/19 02:21:07;;;;;;;;;;;;;;;20.15;55.53;101312.25;7406058;19;1668;-59
2022/06/19 02:23:36;;;;;;;;;;;;;;;20.18;55.76;101334.31;7406159;19;1439;-59
2022/06/19 02:26:10;;;;;;;;;;;;;;;20.02;55.97;101312.44;7406846;19;1854;-59
2022/06/19 02:28:39;;;;;;;;;;;;;;;20.05;55.41;101326.47;7406990;19;1527;-59
2022/06/19 02:31:09;;;;;;;;;;;;;;;20.16;55.40;101317.50;7405825;19;1664;-59
2022/06/19 02:33:41;;;;;;;;;;;;;;;20.18;55.53;101328.97;7406651;19;1735;-59
2022/06/19 02:36:24;;;;;;;;;;;;;;;20.12;55.69;101316.06;7405737;19;1509;-59
2022/06/19 02:38:53;;;;;;;;;;;;;;;20.07;55.44;101310.19;7405685;19;1689;-59
2022/06/19 02:41:27;;;;;;;;;;;;;;;20.00;55.59;101322.47;7407087;19;1347;-59
2022/06/19 02:43:55;;;;;;;;;;;;;;;20.09;55.66;101340.47;7406939;19;1551;-59
2022/06/19 02:46:24;;;;;;;;;;;;;;;20.08;55.74;101335.25;7406571;19;1860;-59
2022/06/19 02:48:52;;;;;;;;;;;;;;;20.09;55.51;101324.34;7404926;19;1679;-59
2022/06/19 02:51:20;;;;;;;;;;;;;;;20.16;55.40;101333.59;7405103;19;1762;-59
2022/06/19 02:53:49;;;;;;;;;;;;;;;20.03;55.50;101324.88;7405131;19;1463;-59
2022/06/19 02:56:17;;;;;;;;;;;;;;;20.09;55.32;101335.09;7404549;19;1530;-59
2022/06/19 02:58:48;;;;;;;;;;;;;;;20.15;54.93;101333.72;7405869;19;1545;-59
2022/06/19 03:01:16;;;;;;;;;;;;;;;20.09;55.03;101335.09;7404117;19;1574;-59
2022/06/19 03:03:45;;;;;;;;;;;;;;;20.16;55.16;101338.97;7405107;19;1775;-59
2022/06/19 03:06:13;;;;;;;;;;;;;;;20.19;55.11;101348.59;7405246;19;1853;-59
2022/06/19 03:08:41;;;;;;;;;;;;;;;20.15;55.10;101348.00;7404892;19;1416;-59
2022/06/19 03:11:10;;;;;;;;;;;;;;;20.14;54.88;101326.66;7405138;19;1555;-59
2022/06/19 03:13:38;;;;;;;;;;;;;;;20.19;54.95;101346.78;7403978;19;1459;-59
2022/06/19 03:16:10;;;;;;;;;;;;;;;20.12;55.17;101345.59;7404056;19;1392;-58
2022/06/19 03:18:39;;;;;;;;;;;;;;;20.19;54.89;101338.72;7404495;19;1712;-59
2022/06/19 03:21:07;;;;;;;;;;;;;;;20.18;55.13;101338.84;7404339;19;1523;-59
2022/06/19 03:23:36;;;;;;;;;;;;;;;20.11;55.31;101349.22;7404133;19;1726;-59
2022/06/19 03:26:07;;;;;;;;;;;;;;;20.10;55.60;101360.97;7402409;19;1537;-59
2022/06/19 03:28:36;;;;;;;;;;;;;;;20.13;55.67;101339.22;7400970;19;1825;-59
2022/06/19 03:31:04;;;;;;;;;;;;;;;20.19;55.56;101345.91;7403799;19;1649;-59
2022/06/19 03:33:35;;;;;;;;;;;;;;;20.17;55.32;101332.59;7404036;19;1590;-66
2022/06/19 03:36:05;;;;;;;;;;;;;;;20.32;55.70;101341.22;7403943;19;1536;-61
2022/06/19 03:38:34;;;;;;;;;;;;;;;20.43;55.74;101345.66;7403906;19;1550;-59
2022/06/19 03:41:02;;;;;;;;;;;;;;;20.57;55.59;101329.22;7404064;19;1534;-61
2022/06/19 03:43:33;;;;;;;;;;;;;;;20.63;55.77;101327.84;7402713;19;1730;-59
2022/06/19 03:46:02;;;;;;;;;;;;;;;20.63;55.58;101344.84;7403434;19;1744;-60
2022/06/19 03:48:30;;;;;;;;;;;;;;;20.62;56.13;101339.59;7401525;19;1861;-61
2022/06/19 03:51:01;;;;;;;;;;;;;;;20.66;56.14;101339.19;7402089;19;1218;-59
2022/06/19 03:53:30;;;;;;;;;;;;;;;20.71;55.98;101341.50;7401593;19;1287;-59
2022/06/19 03:55:58;;;;;;;;;;;;;;;20.76;55.72;101352.69;7402562;19;1272;-59
2022/06/19 03:58:45;;;;;;;;;;;;;;;20.82;55.68;101340.56;7402272;19;1234;-59
2022/06/19 04:01:13;;;;;;;;;;;;;;;20.80;55.71;101345.22;5340980;19;10000195;-60
2022/06/19 04:03:42;;;;;;;;;;;;;;;20.81;56.00;101342.41;7390516;19;1634;-59
2022/06/19 04:06:13;;;;;;;;;;;;;;;20.78;55.82;101352.56;7391382;19;1591;-59
2022/06/19 04:08:44;;;;;;;;;;;;;;;20.79;56.20;101359.63;7400871;19;1852;-60
2022/06/19 04:11:13;;;;;;;;;;;;;;;20.78;56.33;101350.72;7406317;19;1249;-59
2022/06/19 04:13:41;;;;;;;;;;;;;;;20.87;56.41;101349.09;7405639;19;1667;-59
2022/06/19 04:16:11;;;;;;;;;;;;;;;20.88;56.41;101353.47;7407372;19;1658;-59
2022/06/19 04:18:39;;;;;;;;;;;;;;;20.79;56.50;101346.19;7407432;19;1304;-61
2022/06/19 04:21:07;;;;;;;;;;;;;;;20.89;56.39;101365.94;7406303;19;1547;-60
2022/06/19 04:23:38;;;;;;;;;;;;;;;20.98;56.66;101354.38;7408996;19;1398;-59
2022/06/19 04:26:09;;;;;;;;;;;;;;;21.00;56.53;101363.16;7406803;19;1879;-59
2022/06/19 04:28:38;;;;;;;;;;;;;;;21.18;56.47;101344.53;7405316;19;1863;-60
2022/06/19 04:31:07;;;;;;;;;;;;;;;21.35;56.50;101364.59;7409201;19;1900;-61
2022/06/19 04:33:38;;;;;;;;;;;;;;;21.34;55.78;101365.56;7410349;19;1437;-60
2022/06/19 04:36:09;;;;;;;;;;;;;;;21.52;56.44;101349.63;7409195;19;1578;-60
2022/06/19 04:38:41;;;;;;;;;;;;;;;21.60;56.15;101344.41;7409786;19;1372;-59
2022/06/19 04:41:14;;;;;;;;;;;;;;;21.56;55.67;101342.97;7409092;19;1309;-61
2022/06/19 04:43:43;;;;;;;;;;;;;;;21.71;56.14;101332.69;7407485;19;1460;-59
2022/06/19 04:46:11;;;;;;;;;;;;;;;21.75;56.31;101342.19;7407579;19;1384;-57
2022/06/19 04:48:40;;;;;;;;;;;;;;;21.85;56.24;101329.56;7406857;19;1869;-66
2022/06/19 04:51:09;;;;;;;;;;;;;;;22.12;57.23;101341.47;7408835;19;1583;-60
2022/06/19 04:53:38;;;;;;;;;;;;;;;22.05;57.23;101351.13;7407048;19;1750;-59
2022/06/19 04:56:10;;;;;;;;;;;;;;;22.00;56.73;101338.09;7406114;19;1413;-60
2022/06/19 04:58:38;;;;;;;;;;;;;;;21.96;56.83;101343.88;7407002;19;1709;-59
2022/06/19 05:01:10;;;;;;;;;;;;;;;21.95;56.55;101334.13;7406987;19;1372;-59
2022/06/19 05:03:39;;;;;;;;;;;;;;;21.96;57.00;101336.66;7407283;19;1324;-59
2022/06/19 05:06:07;;;;;;;;;;;;;;;21.99;57.27;101332.84;7407931;19;1536;-59
2022/06/19 05:08:36;;;;;;;;;;;;;;;21.99;57.21;101332.84;7406876;19;1836;-60
2022/06/19 05:11:04;;;;;;;;;;;;;;;21.94;56.95;101341.34;7409663;19;1432;-60
2022/06/19 05:13:35;;;;;;;;;;;;;;;22.01;57.06;101344.34;7407501;19;1739;-64
2022/06/19 05:16:05;;;;;;;;;;;;;;;22.02;57.86;101344.19;7405339;19;1333;-60
2022/06/19 05:18:34;;;;;;;;;;;;;;;22.12;58.09;101341.47;7405880;19;1419;-58
2022/06/19 05:21:04;;;;;;;;;;;;;;;22.10;57.83;101335.38;7407085;19;1517;-59
2022/06/19 05:23:33;;;;;;;;;;;;;;;22.08;57.95;101337.38;7405906;19;1569;-60
2022/06/19 05:26:03;;;;;;;;;;;;;;;22.13;58.08;101345.03;7408490;19;1342;-64
2022/06/19 05:28:33;;;;;;;;;;;;;;;22.17;58.13;101347.31;7405308;19;1857;-60
2022/06/19 05:31:04;;;;;;;;;;;;;;;22.30;58.21;101340.78;7406113;19;1754;-63
2022/06/19 05:33:34;;;;;;;;;;;;;;;22.29;58.96;101344.50;7408563;19;1570;-61
2022/06/19 05:36:03;;;;;;;;;;;;;;;22.37;59.79;101347.31;7406137;19;1624;-59
2022/06/19 05:38:31;;;;;;;;;;;;;;;22.05;60.18;101340.38;7405472;19;1381;-59
2022/06/19 05:41:01;;;;;;;;;;;;;;;22.07;59.96;101340.22;7403583;19;1626;-59
2022/06/19 05:43:30;;;;;;;;;;;;;;;22.12;60.00;101321.78;7403740;19;1675;-59
2022/06/19 05:45:59;;;;;;;;;;;;;;;22.11;59.74;101334.41;7403305;19;1846;-59
2022/06/19 05:48:31;;;;;;;;;;;;;;;22.16;59.89;101339.34;7402431;19;1859;-59
2022/06/19 05:51:00;;;;;;;;;;;;;;;22.16;60.16;101340.22;7403119;19;1544;-59
2022/06/19 05:53:29;;;;;;;;;;;;;;;22.17;59.67;101333.84;7403323;19;1544;-59
2022/06/19 05:55:57;;;;;;;;;;;;;;;22.15;59.76;101327.75;7404269;19;1051;-59
2022/06/19 05:58:26;;;;;;;;;;;;;;;22.18;59.66;101338.25;7406011;19;1677;-59
2022/06/19 06:00:55;;;;;;;;;;;;;;;22.19;59.52;101326.47;7405888;19;1581;-59
2022/06/19 06:03:23;;;;;;;;;;;;;;;22.17;59.71;101317.66;7407892;19;1539;-59
2022/06/19 06:05:54;;;;;;;;;;;;;;;22.18;59.53;101316.69;7406568;19;1545;-59
2022/06/19 06:08:22;;;;;;;;;;;;;;;22.19;59.68;101323.75;7405990;19;1870;-59
2022/06/19 06:10:51;;;;;;;;;;;;;;;22.21;59.19;101318.25;7408330;19;985;-59
2022/06/19 06:13:20;;;;;;;;;;;;;;;22.19;59.61;101320.22;7404203;19;1770;-59
2022/06/19 06:15:48;;;;;;;;;;;;;;;22.23;59.64;101322.47;7402773;19;1360;-59
2022/06/19 06:18:17;;;;;;;;;;;;;;;22.23;59.37;101317.09;7405436;19;1361;-59
2022/06/19 06:20:45;;;;;;;;;;;;;;;22.31;59.75;101331.72;7401906;19;1534;-59
2022/06/19 06:23:16;;;;;;;;;;;;;;;22.23;59.73;101318.94;7403021;19;1607;-59
2022/06/19 06:25:44;;;;;;;;;;;;;;;22.27;59.82;101308.78;7406539;19;1573;-59
2022/06/19 06:28:12;;;;;;;;;;;;;;;22.26;60.31;101317.84;7404361;19;1867;-59
2022/06/19 06:30:41;;;;;;;;;;;;;;;22.24;60.22;101321.53;7402565;19;1782;-59
2022/06/19 06:33:09;;;;;;;;;;;;;;;22.24;59.92;101315.28;7406633;19;1625;-59
2022/06/19 06:35:37;;;;;;;;;;;;;;;22.26;60.07;101320.53;7405222;19;1624;-59
2022/06/19 06:38:06;;;;;;;;;;;;;;;22.23;60.13;101317.09;7402210;19;1360;-59
2022/06/19 06:40:37;;;;;;;;;;;;;;;22.24;59.63;101316.16;7407676;19;942;-59
2022/06/19 06:43:05;;;;;;;;;;;;;;;22.21;59.80;101311.00;7403831;19;1502;-59
2022/06/19 06:45:34;;;;;;;;;;;;;;;22.23;59.83;101309.00;7405425;19;1439;-59
2022/06/19 06:48:02;;;;;;;;;;;;;;;22.26;60.14;101309.75;7404632;19;1852;-59
2022/06/19 06:50:31;;;;;;;;;;;;;;;22.23;59.99;101311.72;7404767;19;1648;-59
2022/06/19 06:52:59;;;;;;;;;;;;;;;22.22;59.99;101312.72;7405176;19;1455;-59
2022/06/19 06:55:27;;;;;;;;;;;;;;;22.25;60.05;101319.69;7406812;19;1039;-59
2022/06/19 06:57:58;;;;;;;;;;;;;;;22.28;60.53;101311.28;7403661;19;1495;-59
2022/06/19 07:00:27;;;;;;;;;;;;;;;22.28;60.01;101315.84;7404322;19;1360;-59
2022/06/19 07:02:55;;;;;;;;;;;;;;;22.24;60.74;101309.88;7402977;19;1501;-59
2022/06/19 07:05:23;;;;;;;;;;;;;;;22.25;60.36;101303.53;7404323;19;1779;-59
2022/06/19 07:07:52;;;;;;;;;;;;;;;22.27;60.01;101306.06;7402375;19;1880;-59
2022/06/19 07:10:21;;;;;;;;;;;;;;;22.38;61.00;101332.84;7405696;19;1659;-58
2022/06/19 07:12:49;;;;;;;;;;;;;;;22.32;60.77;101328.91;7403965;19;1481;-59
2022/06/19 07:15:20;;;;;;;;;;;;;;;22.29;59.99;101322.94;7404004;19;1643;-59
2022/06/19 07:17:48;;;;;;;;;;;;;;;22.30;59.98;101316.53;7404683;19;1203;-59
2022/06/19 07:20:17;;;;;;;;;;;;;;;22.30;59.98;101321.94;7402828;19;1540;-59
2022/06/19 07:22:45;;;;;;;;;;;;;;;22.28;60.41;101318.53;7404509;19;1639;-59
2022/06/19 07:25:17;;;;;;;;;;;;;;;22.29;59.96;101312.16;7405794;19;1038;-59
2022/06/19 07:27:45;;;;;;;;;;;;;;;22.32;60.13;101322.63;7402140;19;1859;-59
2022/06/19 07:30:16;;;;;;;;;;;;;;;22.28;60.28;101305.06;7401691;19;1567;-59
2022/06/19 07:32:47;;;;;;;;;;;;;;;22.28;60.28;101305.91;7404331;19;1549;-59
2022/06/19 07:35:15;;;;;;;;;;;;;;;22.24;60.34;101309.88;7404418;19;1816;-59
2022/06/19 07:37:43;;;;;;;;;;;;;;;22.27;60.56;101324.94;7403198;19;1573;-59
2022/06/19 07:40:13;;;;;;;;;;;;;;;22.28;60.49;101315.84;7405488;19;1537;-59
2022/06/19 07:42:41;;;;;;;;;;;;;;;22.26;60.28;101307.91;7409982;19;1418;-59
2022/06/19 07:45:10;;;;;;;;;;;;;;;22.28;60.23;101310.44;7411793;19;1534;-59
2022/06/19 07:50:21;;;;;;;;;;;;;;;22.26;60.48;101302.50;7413215;19;1643;-59
2022/06/19 07:52:51;;;;;;;;;;;;;;;22.24;60.39;101299.97;7411242;19;1578;-59
2022/06/19 07:55:21;;;;;;;;;;;;;;;22.29;60.48;101322.94;7410866;19;1257;-59
2022/06/19 07:57:50;;;;;;;;;;;;;;;22.27;60.44;101293.44;7411274;19;1634;-59
2022/06/19 08:00:20;;;;;;;;;;;;;;;22.27;60.42;101309.63;7410949;19;1632;-59
2022/06/19 08:02:50;;;;;;;;;;;;;;;22.29;60.46;101285.22;7408861;19;1336;-59
2022/06/19 08:05:22;;;;;;;;;;;;;;;22.27;60.46;101298.00;7409921;19;1609;-59
2022/06/19 08:07:52;;;;;;;;;;;;;;;22.25;60.71;101290.06;7409864;19;1857;-59
2022/06/19 08:10:23;;;;;;;;;;;;;;;22.27;60.67;101296.13;7411150;19;1542;-59
2022/06/19 08:12:52;;;;;;;;;;;;;;;22.25;60.34;101290.06;7408662;19;1659;-59
2022/06/19 08:15:21;;;;;;;;;;;;;;;22.27;60.43;101289.91;7410584;19;1435;-59
2022/06/19 08:17:49;;;;;;;;;;;;;;;22.26;60.69;101297.13;7411435;19;1544;-59
2022/06/19 08:20:18;;;;;;;;;;;;;;;22.26;60.74;101280.13;7408948;19;1644;-59
2022/06/19 08:22:49;;;;;;;;;;;;;;;22.27;60.57;101288.06;7410864;19;1544;-59
2022/06/19 08:25:19;;;;;;;;;;;;;;;22.26;60.70;101274.72;7410951;19;1628;-59
2022/06/19 08:27:49;;;;;;;;;;;;;;;22.29;60.51;101290.63;7408779;19;1783;-59
2022/06/19 08:30:18;;;;;;;;;;;;;;;21.89;60.60;101221.59;7407785;19;1848;-59
2022/06/19 08:32:47;;;;;;;;;;;;;;;22.24;60.88;101275.75;7410698;19;1341;-59
2022/06/19 08:35:15;;;;;;;;;;;;;;;22.28;60.46;101278.97;7408409;19;1652;-59
2022/06/19 08:37:45;;;;;;;;;;;;;;;22.28;60.99;101278.97;7410792;19;1544;-59
2022/06/19 08:40:21;;;;;;;;;;;;;;;22.28;60.83;101278.97;7409921;19;1700;-59
2022/06/19 08:42:57;;;;;;;;;;;;;;;22.27;60.73;101279.13;7408178;19;1600;-59
2022/06/19 08:45:32;;;;;;;;;;;;;;;22.27;60.69;101277.28;7409483;19;1554;-59
2022/06/19 08:48:10;;;;;;;;;;;;;;;22.30;60.74;101276.13;7409943;19;1836;-59
2022/06/19 08:50:42;;;;;;;;;;;;;;;22.27;61.06;101276.44;7408780;19;1613;-59
2022/06/19 08:53:16;;;;;;;;;;;;;;;22.27;60.72;101263.81;7406916;19;1630;-59
2022/06/19 08:55:52;;;;;;;;;;;;;;;22.32;60.92;101268.75;7410043;19;1517;-59
2022/06/19 08:58:28;;;;;;;;;;;;;;;22.25;61.88;101260.41;7408626;19;1688;-58
2022/06/19 09:01:00;;;;;;;;;;;;;;;22.15;62.26;101263.09;7408131;19;1639;-59
2022/06/19 09:05:36;;;;;;;;;;;;;;;22.16;62.44;101258.53;7409940;19;1612;-59
2022/06/19 09:06:26;;;;;;;;;;;;;;;22.15;62.78;101256.88;7409470;19;1515;-59
2022/06/19 09:09:04;;;;;;;;;;;;;;;22.17;62.71;101249.47;7407317;19;1857;-58
2022/06/19 09:11:43;;;;;;;;;;;;;;;22.17;62.51;101255.72;7409075;19;1461;-59
2022/06/19 09:14:17;;;;;;;;;;;;;;;22.32;61.81;101263.38;7403850;19;1630;-58
2022/06/19 09:16:52;;;;;;;;;;;;;;;22.02;62.30;101257.16;7404506;19;1543;-57
2022/06/19 09:19:27;;;;;;;;;;;;;;;20.94;62.53;101255.31;7406461;19;1553;-57
2022/06/19 09:22:05;;;;;;;;;;;;;;;20.28;62.87;101253.84;7409062;19;1611;-59
2022/06/19 09:24:46;;;;;;;;;;;;;;;20.17;63.34;101273.53;7407818;19;1502;-59
2022/06/19 09:27:18;;;;;;;;;;;;;;;20.27;63.27;101242.25;7407578;19;1566;-69
2022/06/19 09:29:49;;;;;;;;;;;;;;;20.26;63.51;101258.47;7395989;19;1873;-62
2022/06/19 09:32:20;;;;;;;;;;;;;;;20.20;63.98;101250.97;7402855;19;1447;-61
2022/06/19 09:34:51;;;;;;;;;;;;;;;20.24;63.72;101258.59;7404101;19;1360;-62
2022/06/19 09:37:22;;;;;;;;;;;;;;;20.86;64.85;101237.16;7398566;19;1316;-61
2022/06/19 09:39:56;;;;;;;;;;;;;;;21.19;65.13;101229.75;7404833;19;1425;-62
2022/06/19 09:42:30;;;;;;;;;;;;;;;21.53;63.66;101238.31;7404446;19;1193;-61
2022/06/19 09:45:01;;;;;;;;;;;;;;;21.85;63.00;101239.88;7398644;19;1335;-62
2022/06/19 09:47:34;;;;;;;;;;;;;;;22.14;62.32;101234.44;7398631;19;1359;-62
2022/06/19 09:50:06;;;;;;;;;;;;;;;22.20;61.83;101255.44;7402888;19;1861;-61
2022/06/19 09:52:37;;;;;;;;;;;;;;;22.20;62.21;101228.50;7404471;19;1601;-61
2022/06/19 09:55:10;;;;;;;;;;;;;;;22.31;62.09;101214.03;7406044;19;1384;-59
2022/06/19 09:57:43;;;;;;;;;;;;;;;22.40;62.10;101220.38;7407452;19;1350;-58
2022/06/19 10:00:13;;;;;;;;;;;;;;;22.40;62.81;101206.91;7406608;19;1347;-58
2022/06/19 10:02:45;;;;;;;;;;;;;;;22.38;63.11;101211.59;7405491;19;1518;-61
2022/06/19 10:05:18;;;;;;;;;;;;;;;22.38;63.23;101215.16;7405249;19;1332;-65
2022/06/19 10:07:51;;;;;;;;;;;;;;;22.41;63.50;101222.09;7406916;19;1631;-62
2022/06/19 10:10:25;;;;;;;;;;;;;;;22.42;62.92;101215.69;7405093;19;1846;-60
2022/06/19 10:12:57;;;;;;;;;;;;;;;22.45;63.35;101220.78;7405808;19;1445;-64
2022/06/19 10:15:29;;;;;;;;;;;;;;;22.40;63.88;101212.28;7405973;19;1325;-61
2022/06/19 10:17:59;;;;;;;;;;;;;;;22.07;63.67;101136.38;7405547;19;1656;-62
2022/06/19 10:20:31;;;;;;;;;;;;;;;22.50;62.92;101217.66;7404512;19;1641;-66
2022/06/19 10:23:05;;;;;;;;;;;;;;;22.49;63.53;101197.94;7404995;19;1365;-61
2022/06/19 10:25:37;;;;;;;;;;;;;;;22.59;63.48;101193.34;7402699;19;1240;-65
2022/06/19 10:28:18;;;;;;;;;;;;;;;22.61;63.42;101196.75;7401871;19;1521;-61
2022/06/19 10:30:50;;;;;;;;;;;;;;;22.52;63.86;101199.47;7399773;19;1836;-60
2022/06/19 10:33:24;;;;;;;;;;;;;;;22.49;63.47;101192.53;7405571;19;1351;-61
2022/06/19 10:35:55;;;;;;;;;;;;;;;22.51;63.31;101204.03;7405945;19;1503;-60
2022/06/19 10:38:36;;;;;;;;;;;;;;;22.50;63.47;101188.88;7405222;19;1616;-63
2022/06/19 10:41:07;;;;;;;;;;;;;;;22.52;63.21;101194.09;7405945;19;1382;-65
2022/06/19 10:43:44;;;;;;;;;;;;;;;22.53;63.40;101193.09;7405700;19;1656;-65
2022/06/19 10:46:15;;;;;;;;;;;;;;;22.52;63.46;101191.38;7404637;19;1232;-67
2022/06/19 10:48:49;;;;;;;;;;;;;;;22.52;63.11;101189.56;7405388;19;1849;-63
2022/06/19 10:51:26;;;;;;;;;;;;;;;22.53;63.38;101185.84;7406208;19;1335;-65
2022/06/19 10:54:04;;;;;;;;;;;;;;;22.57;63.50;101189.13;7406086;19;1532;-63
2022/06/19 10:56:38;;;;;;;;;;;;;;;22.54;63.35;101152.53;7405398;19;1225;-67
2022/06/19 10:59:10;;;;;;;;;;;;;;;22.56;63.32;101177.50;7404706;19;1685;-64
2022/06/19 11:04:24;;;;;;;;;;;;;;;22.60;63.26;101165.41;7407265;19;1474;-68
2022/06/19 11:06:57;;;;;;;;;;;;;;;22.62;63.18;101162.53;7411904;19;1304;-74
2022/06/19 11:09:29;;;;;;;;;;;;;;;22.60;62.98;101165.41;7418910;19;1815;-72
2022/06/19 11:12:00;;;;;;;;;;;;;;;22.62;63.56;101166.09;7428974;19;1224;-77
2022/06/19 11:14:38;;;;;;;;;;;;;;;22.59;63.53;101168.25;7422127;19;1590;-75
2022/06/19 11:17:08;;;;;;;;;;;;;;;22.58;63.50;101167.41;7419472;19;1498;-75
2022/06/19 11:19:41;;;;;;;;;;;;;;;22.60;63.65;101170.81;7424768;19;1557;-75
2022/06/19 11:22:22;;;;;;;;;;;;;;;22.61;63.42;101167.09;7421350;19;1344;-70
2022/06/19 11:24:50;;;;;;;;;;;;;;;22.56;63.66;101158.63;7415664;19;1633;-73
2022/06/19 11:27:21;;;;;;;;;;;;;;;22.66;63.45;101163.97;7410166;19;1571;-71
2022/06/19 11:29:53;;;;;;;;;;;;;;;22.61;63.34;101160.84;7420940;19;1852;-66
2022/06/19 11:32:23;;;;;;;;;;;;;;;22.61;62.85;101167.09;7411288;19;1427;-64
2022/06/19 11:34:58;;;;;;;;;;;;;;;22.58;63.28;101158.44;7405660;19;1642;-67
2022/06/19 11:37:30;;;;;;;;;;;;;;;22.61;63.36;101161.69;7407901;19;1431;-65
2022/06/19 11:40:13;;;;;;;;;;;;;;;22.67;63.74;101164.81;7411055;19;1328;-71
2022/06/19 11:42:48;;;;;;;;;;;;;;;22.67;63.81;101154.03;7414838;19;1445;-71
2022/06/19 11:45:26;;;;;;;;;;;;;;;22.69;63.68;101152.88;7406822;19;1586;-63
2022/06/19 11:48:03;;;;;;;;;;;;;;;22.71;63.97;101152.72;7403946;19;1218;-63
2022/06/19 11:50:40;;;;;;;;;;;;;;;22.72;64.12;101159.78;7401108;19;1854;-63
2022/06/19 11:53:16;;;;;;;;;;;;;;;22.72;65.07;101147.19;7403934;19;1388;-63
2022/06/19 11:55:45;;;;;;;;;;;;;;;22.78;64.86;101135.78;7402085;19;1412;-65
2022/06/19 11:58:21;;;;;;;;;;;;;;;22.77;64.61;101126.00;7402369;19;1270;-65
2022/06/19 12:01:00;;;;;;;;;;;;;;;22.81;64.77;101137.34;7400325;19;1346;-67
2022/06/19 12:03:31;;;;;;;;;;;;;;;22.77;64.85;101133.25;7403438;19;1217;-65
2022/06/19 12:06:02;;;;;;;;;;;;;;;22.73;64.86;101131.84;7399624;19;1541;-68
2022/06/19 12:08:33;;;;;;;;;;;;;;;22.77;64.92;101106.28;7401226;19;1420;-66
2022/06/19 12:11:02;;;;;;;;;;;;;;;22.82;64.72;101141.75;7399455;19;1863;-60
2022/06/19 12:13:32;;;;;;;;;;;;;;;22.69;65.09;101134.00;7397978;19;1542;-60
2022/06/19 12:16:11;;;;;;;;;;;;;;;22.59;64.64;101104.41;7401468;19;1445;-60
2022/06/19 12:18:40;;;;;;;;;;;;;;;22.63;65.28;101116.56;7402085;19;1414;-62
2022/06/19 12:21:21;;;;;;;;;;;;;;;22.70;64.26;101122.22;7402889;19;1310;-64
2022/06/19 12:23:55;;;;;;;;;;;;;;;22.66;64.62;101114.56;7403503;19;1339;-61
2022/06/19 12:26:28;;;;;;;;;;;;;;;22.66;64.46;101112.75;7401354;19;1439;-61
2022/06/19 12:29:01;;;;;;;;;;;;;;;22.62;64.60;101105.94;7408687;19;1509;-61
2022/06/19 12:31:35;;;;;;;;;;;;;;;22.66;64.87;101107.34;7405058;19;1833;-64
2022/06/19 12:34:12;;;;;;;;;;;;;;;22.63;65.16;101121.97;7409718;19;1263;-66
2022/06/19 12:36:40;;;;;;;;;;;;;;;22.61;64.53;101104.25;7407245;19;1468;-65
2022/06/19 12:39:16;;;;;;;;;;;;;;;22.67;64.55;101110.91;7408884;19;1444;-65
2022/06/19 12:41:49;;;;;;;;;;;;;;;22.63;64.68;101088.78;7408812;19;1462;-60
2022/06/19 12:44:28;;;;;;;;;;;;;;;22.65;65.11;101092.16;7405351;19;1329;-62
2022/06/19 12:47:05;;;;;;;;;;;;;;;22.63;64.45;101108.47;7405680;19;1808;-61
2022/06/19 12:49:45;;;;;;;;;;;;;;;22.67;64.92;101111.72;7407266;19;1846;-64
2022/06/19 12:52:20;;;;;;;;;;;;;;;22.57;64.84;101071.34;7409750;19;1292;-64
2022/06/19 12:54:56;;;;;;;;;;;;;;;22.55;64.61;101094.91;7410007;19;1370;-68
2022/06/19 12:57:41;;;;;;;;;;;;;;;22.57;64.81;101084.84;7408314;19;1715;-64
2022/06/19 13:00:13;;;;;;;;;;;;;;;22.55;64.52;101089.53;7406793;19;1224;-64
2022/06/19 13:02:53;;;;;;;;;;;;;;;22.57;64.83;101092.91;7406002;19;1785;-62
2022/06/19 13:05:28;;;;;;;;;;;;;;;22.58;64.97;101075.75;7404962;19;1687;-65
2022/06/19 13:08:03;;;;;;;;;;;;;;;22.59;64.29;101080.13;7407416;19;1300;-60
2022/06/19 13:10:42;;;;;;;;;;;;;;;22.64;65.06;101080.53;7405969;19;1865;-62
2022/06/19 13:13:18;;;;;;;;;;;;;;;22.61;63.42;101069.22;7402862;19;1501;-61
2022/06/19 13:15:52;;;;;;;;;;;;;;;22.63;64.04;101073.44;7407132;19;1359;-60